sensor_id;sensor_type;location;lat;lon;timestamp;temperature;humidity
21861;DHT22;11095;48.066;8.540;2022-09-01T00:02:14;12.30;99.90
21861;DHT22;11095;48.066;8.540;2022-09-01T00:04:42;12.30;99.90
21861;DHT22;11095;48.066;8.540;2022-09-01T00:07:09;12.30;99.90
21861;DHT22;11095;48.066;8.540;2022-09-01T00:09:35;12.30;99.90
21861;DHT22;11095;48.066;8.540;2022-09-01T00:12:03;12.30;99.90
21861;DHT22;11095;48.066;8.540;2022-09-01T00:14:32;12.30;99.90
21861;DHT22;11095;48.066;8.540;2022-09-01T00:17:02;12.20;99.90
21861;DHT22;11095;48.066;8.540;2022-09-01T00:19:28;12.30;99.90
21861;DHT22;11095;48.066;8.540;2022-09-01T00:21:54;12.20;99.90
21861;DHT22;11095;48.066;8.540;2022-09-01T00:24:21;12.20;99.90
21861;DHT22;11095;48.066;8.540;2022-09-01T00:26:47;12.20;99.90
21861;DHT22;11095;48.066;8.540;2022-09-01T00:29:14;12.20;99.90
21861;DHT22;11095;48.066;8.540;2022-09-01T00:31:39;12.20;99.90
21861;DHT22;11095;48.066;8.540;2022-09-01T00:34:05;12.20;99.90
21861;DHT22;11095;48.066;8.540;2022-09-01T00:36:31;12.20;99.90
21861;DHT22;11095;48.066;8.540;2022-09-01T00:38:57;12.20;99.90
21861;DHT22;11095;48.066;8.540;2022-09-01T00:41:25;12.10;99.90
21861;DHT22;11095;48.066;8.540;2022-09-01T00:44:00;12.10;99.90
21861;DHT22;11095;48.066;8.540;2022-09-01T00:46:33;12.10;99.90
21861;DHT22;11095;48.066;8.540;2022-09-01T00:49:32;12.10;99.90
21861;DHT22;11095;48.066;8.540;2022-09-01T00:52:07;12.10;99.90
21861;DHT22;11095;48.066;8.540;2022-09-01T00:54:38;12.10;99.90
21861;DHT22;11095;48.066;8.540;2022-09-01T00:57:06;12.10;99.90
21861;DHT22;11095;48.066;8.540;2022-09-01T00:59:34;12.10;99.90
21861;DHT22;11095;48.066;8.540;2022-09-01T01:02:00;12.00;99.90
21861;DHT22;11095;48.066;8.540;2022-09-01T01:04:26;12.00;99.90
21861;DHT22;11095;48.066;8.540;2022-09-01T01:06:55;12.00;99.90
21861;DHT22;11095;48.066;8.540;2022-09-01T01:09:29;12.00;99.90
21861;DHT22;11095;48.066;8.540;2022-09-01T01:11:58;11.90;99.90
21861;DHT22;11095;48.066;8.540;2022-09-01T01:14:26;11.90;99.90
21861;DHT22;11095;48.066;8.540;2022-09-01T01:16:57;11.90;99.90
21861;DHT22;11095;48.066;8.540;2022-09-01T01:19:49;11.80;99.90
21861;DHT22;11095;48.066;8.540;2022-09-01T01:25:40;11.70;99.90
21861;DHT22;11095;48.066;8.540;2022-09-01T01:28:30;11.70;99.90
21861;DHT22;11095;48.066;8.540;2022-09-01T01:31:06;11.70;99.90
21861;DHT22;11095;48.066;8.540;2022-09-01T01:33:41;11.70;99.90
21861;DHT22;11095;48.066;8.540;2022-09-01T01:36:10;11.60;99.90
21861;DHT22;11095;48.066;8.540;2022-09-01T01:38:43;11.60;99.90
21861;DHT22;11095;48.066;8.540;2022-09-01T01:41:11;11.50;99.90
21861;DHT22;11095;48.066;8.540;2022-09-01T01:43:38;11.50;99.90
21861;DHT22;11095;48.066;8.540;2022-09-01T01:46:06;11.40;99.90
21861;DHT22;11095;48.066;8.540;2022-09-01T01:48:34;11.40;99.90
21861;DHT22;11095;48.066;8.540;2022-09-01T01:51:02;11.40;99.90
21861;DHT22;11095;48.066;8.540;2022-09-01T01:53:29;11.40;99.90
21861;DHT22;11095;48.066;8.540;2022-09-01T01:55:55;11.40;99.90
21861;DHT22;11095;48.066;8.540;2022-09-01T01:58:23;11.30;99.90
21861;DHT22;11095;48.066;8.540;2022-09-01T02:00:51;11.40;99.90
21861;DHT22;11095;48.066;8.540;2022-09-01T02:03:21;11.40;99.90
21861;DHT22;11095;48.066;8.540;2022-09-01T02:05:48;11.40;99.90
21861;DHT22;11095;48.066;8.540;2022-09-01T02:08:15;11.50;99.90
21861;DHT22;11095;48.066;8.540;2022-09-01T02:10:48;11.50;99.90
21861;DHT22;11095;48.066;8.540;2022-09-01T02:13:16;11.50;99.90
21861;DHT22;11095;48.066;8.540;2022-09-01T02:15:46;11.50;99.90
21861;DHT22;11095;48.066;8.540;2022-09-01T02:18:15;11.50;99.90
21861;DHT22;11095;48.066;8.540;2022-09-01T02:20:43;11.40;99.90
21861;DHT22;11095;48.066;8.540;2022-09-01T02:23:09;11.40;99.90
21861;DHT22;11095;48.066;8.540;2022-09-01T02:25:37;11.40;99.90
21861;DHT22;11095;48.066;8.540;2022-09-01T02:28:03;11.30;99.90
21861;DHT22;11095;48.066;8.540;2022-09-01T02:30:30;11.30;99.90
21861;DHT22;11095;48.066;8.540;2022-09-01T02:32:59;11.20;99.90
21861;DHT22;11095;48.066;8.540;2022-09-01T02:35:25;11.10;99.90
21861;DHT22;11095;48.066;8.540;2022-09-01T02:38:01;11.10;99.90
21861;DHT22;11095;48.066;8.540;2022-09-01T02:40:27;11.10;99.90
21861;DHT22;11095;48.066;8.540;2022-09-01T02:42:57;11.00;99.90
21861;DHT22;11095;48.066;8.540;2022-09-01T02:45:24;11.00;99.90
21861;DHT22;11095;48.066;8.540;2022-09-01T02:47:50;11.00;99.90
21861;DHT22;11095;48.066;8.540;2022-09-01T02:50:18;11.10;99.90
21861;DHT22;11095;48.066;8.540;2022-09-01T02:52:45;11.10;99.90
21861;DHT22;11095;48.066;8.540;2022-09-01T02:55:14;11.10;99.90
21861;DHT22;11095;48.066;8.540;2022-09-01T02:57:50;11.10;99.90
21861;DHT22;11095;48.066;8.540;2022-09-01T03:00:22;11.10;99.90
21861;DHT22;11095;48.066;8.540;2022-09-01T03:02:55;11.10;99.90
21861;DHT22;11095;48.066;8.540;2022-09-01T03:05:22;11.00;99.90
21861;DHT22;11095;48.066;8.540;2022-09-01T03:08:00;10.80;99.90
21861;DHT22;11095;48.066;8.540;2022-09-01T03:10:29;10.80;99.90
21861;DHT22;11095;48.066;8.540;2022-09-01T03:13:05;10.70;99.90
21861;DHT22;11095;48.066;8.540;2022-09-01T03:15:33;10.70;99.90
21861;DHT22;11095;48.066;8.540;2022-09-01T03:18:02;10.60;99.90
21861;DHT22;11095;48.066;8.540;2022-09-01T03:20:30;10.60;99.90
21861;DHT22;11095;48.066;8.540;2022-09-01T03:23:02;10.60;99.90
21861;DHT22;11095;48.066;8.540;2022-09-01T03:25:28;10.60;99.90
21861;DHT22;11095;48.066;8.540;2022-09-01T03:27:55;10.60;99.90
21861;DHT22;11095;48.066;8.540;2022-09-01T03:30:24;10.50;99.90
21861;DHT22;11095;48.066;8.540;2022-09-01T03:32:51;10.60;99.90
21861;DHT22;11095;48.066;8.540;2022-09-01T03:35:17;10.60;99.90
21861;DHT22;11095;48.066;8.540;2022-09-01T03:37:43;10.70;99.90
21861;DHT22;11095;48.066;8.540;2022-09-01T03:40:11;10.80;99.90
21861;DHT22;11095;48.066;8.540;2022-09-01T03:42:37;10.90;99.90
21861;DHT22;11095;48.066;8.540;2022-09-01T03:45:04;11.00;99.90
21861;DHT22;11095;48.066;8.540;2022-09-01T03:47:38;11.10;99.90
21861;DHT22;11095;48.066;8.540;2022-09-01T03:50:07;11.20;99.90
21861;DHT22;11095;48.066;8.540;2022-09-01T03:52:37;11.20;99.90
21861;DHT22;11095;48.066;8.540;2022-09-01T03:55:05;11.30;99.90
21861;DHT22;11095;48.066;8.540;2022-09-01T03:57:30;11.30;99.90
21861;DHT22;11095;48.066;8.540;2022-09-01T03:59:56;11.40;99.90
21861;DHT22;11095;48.066;8.540;2022-09-01T04:02:22;11.40;99.90
21861;DHT22;11095;48.066;8.540;2022-09-01T04:04:48;11.40;99.90
21861;DHT22;11095;48.066;8.540;2022-09-01T04:07:14;11.40;99.90
21861;DHT22;11095;48.066;8.540;2022-09-01T04:09:40;11.50;99.90
21861;DHT22;11095;48.066;8.540;2022-09-01T04:12:08;11.50;99.90
21861;DHT22;11095;48.066;8.540;2022-09-01T04:14:35;11.50;99.90
21861;DHT22;11095;48.066;8.540;2022-09-01T04:17:01;11.50;99.90
21861;DHT22;11095;48.066;8.540;2022-09-01T04:19:45;11.50;99.90
21861;DHT22;11095;48.066;8.540;2022-09-01T04:22:12;11.50;99.90
21861;DHT22;11095;48.066;8.540;2022-09-01T04:24:37;11.60;99.90
21861;DHT22;11095;48.066;8.540;2022-09-01T04:27:06;11.60;99.90
21861;DHT22;11095;48.066;8.540;2022-09-01T04:29:33;11.70;99.90
21861;DHT22;11095;48.066;8.540;2022-09-01T04:32:02;11.70;99.90
21861;DHT22;11095;48.066;8.540;2022-09-01T04:34:32;11.70;99.90
21861;DHT22;11095;48.066;8.540;2022-09-01T04:37:13;11.70;99.90
21861;DHT22;11095;48.066;8.540;2022-09-01T04:39:40;11.80;99.90
21861;DHT22;11095;48.066;8.540;2022-09-01T04:42:12;11.80;99.90
21861;DHT22;11095;48.066;8.540;2022-09-01T04:44:38;11.80;99.90
21861;DHT22;11095;48.066;8.540;2022-09-01T04:47:04;11.80;99.90
21861;DHT22;11095;48.066;8.540;2022-09-01T04:49:35;11.80;99.90
21861;DHT22;11095;48.066;8.540;2022-09-01T04:52:02;11.80;99.90
21861;DHT22;11095;48.066;8.540;2022-09-01T04:54:28;11.90;99.90
21861;DHT22;11095;48.066;8.540;2022-09-01T04:56:55;11.90;99.90
21861;DHT22;11095;48.066;8.540;2022-09-01T04:59:23;11.90;99.90
21861;DHT22;11095;48.066;8.540;2022-09-01T05:01:49;11.90;99.90
21861;DHT22;11095;48.066;8.540;2022-09-01T05:04:30;11.90;99.90
21861;DHT22;11095;48.066;8.540;2022-09-01T05:06:59;12.00;99.90
21861;DHT22;11095;48.066;8.540;2022-09-01T05:09:31;12.00;99.90
21861;DHT22;11095;48.066;8.540;2022-09-01T05:11:58;12.10;99.90
21861;DHT22;11095;48.066;8.540;2022-09-01T05:14:38;12.10;99.90
21861;DHT22;11095;48.066;8.540;2022-09-01T05:17:10;12.10;99.90
21861;DHT22;11095;48.066;8.540;2022-09-01T05:19:37;12.00;99.90
21861;DHT22;11095;48.066;8.540;2022-09-01T05:22:03;12.00;99.90
21861;DHT22;11095;48.066;8.540;2022-09-01T05:24:29;12.10;99.90
21861;DHT22;11095;48.066;8.540;2022-09-01T05:26:57;12.20;99.90
21861;DHT22;11095;48.066;8.540;2022-09-01T05:29:25;12.10;99.90
21861;DHT22;11095;48.066;8.540;2022-09-01T05:31:52;12.20;99.90
21861;DHT22;11095;48.066;8.540;2022-09-01T05:34:19;12.20;99.90
21861;DHT22;11095;48.066;8.540;2022-09-01T05:36:51;12.30;99.90
21861;DHT22;11095;48.066;8.540;2022-09-01T05:39:17;12.20;99.90
21861;DHT22;11095;48.066;8.540;2022-09-01T05:41:43;12.20;99.90
21861;DHT22;11095;48.066;8.540;2022-09-01T05:44:10;12.20;99.90
21861;DHT22;11095;48.066;8.540;2022-09-01T05:46:37;12.20;99.90
21861;DHT22;11095;48.066;8.540;2022-09-01T05:49:04;12.30;99.90
21861;DHT22;11095;48.066;8.540;2022-09-01T05:51:31;12.40;99.90
21861;DHT22;11095;48.066;8.540;2022-09-01T05:54:00;12.40;99.90
21861;DHT22;11095;48.066;8.540;2022-09-01T05:56:28;12.50;99.90
21861;DHT22;11095;48.066;8.540;2022-09-01T05:58:54;12.60;99.90
21861;DHT22;11095;48.066;8.540;2022-09-01T06:01:22;12.80;99.90
21861;DHT22;11095;48.066;8.540;2022-09-01T06:03:54;13.00;99.90
21861;DHT22;11095;48.066;8.540;2022-09-01T06:06:25;13.10;99.90
21861;DHT22;11095;48.066;8.540;2022-09-01T06:08:52;13.20;99.90
21861;DHT22;11095;48.066;8.540;2022-09-01T06:11:26;13.20;99.90
21861;DHT22;11095;48.066;8.540;2022-09-01T06:13:53;13.40;99.90
21861;DHT22;11095;48.066;8.540;2022-09-01T06:16:20;13.60;99.90
21861;DHT22;11095;48.066;8.540;2022-09-01T06:18:46;14.00;99.90
21861;DHT22;11095;48.066;8.540;2022-09-01T06:21:12;14.30;99.90
21861;DHT22;11095;48.066;8.540;2022-09-01T06:23:41;14.40;99.90
21861;DHT22;11095;48.066;8.540;2022-09-01T06:26:18;14.40;99.90
21861;DHT22;11095;48.066;8.540;2022-09-01T06:28:44;14.50;99.90
21861;DHT22;11095;48.066;8.540;2022-09-01T06:31:11;14.50;99.90
21861;DHT22;11095;48.066;8.540;2022-09-01T06:33:38;14.50;99.90
21861;DHT22;11095;48.066;8.540;2022-09-01T06:36:05;14.60;99.90
21861;DHT22;11095;48.066;8.540;2022-09-01T06:38:30;14.50;99.90
21861;DHT22;11095;48.066;8.540;2022-09-01T06:41:01;14.50;99.90
21861;DHT22;11095;48.066;8.540;2022-09-01T06:43:29;14.20;99.90
21861;DHT22;11095;48.066;8.540;2022-09-01T06:45:55;14.30;99.90
21861;DHT22;11095;48.066;8.540;2022-09-01T06:48:21;14.40;99.90
21861;DHT22;11095;48.066;8.540;2022-09-01T06:50:48;14.40;99.90
21861;DHT22;11095;48.066;8.540;2022-09-01T06:53:14;15.00;99.90
21861;DHT22;11095;48.066;8.540;2022-09-01T06:55:46;16.10;99.90
21861;DHT22;11095;48.066;8.540;2022-09-01T06:58:13;17.80;99.90
21861;DHT22;11095;48.066;8.540;2022-09-01T07:00:41;20.10;99.90
21861;DHT22;11095;48.066;8.540;2022-09-01T07:03:12;21.90;99.90
21861;DHT22;11095;48.066;8.540;2022-09-01T07:05:40;22.20;99.90
21861;DHT22;11095;48.066;8.540;2022-09-01T07:08:07;21.20;99.90
21861;DHT22;11095;48.066;8.540;2022-09-01T07:10:40;19.70;99.90
21861;DHT22;11095;48.066;8.540;2022-09-01T07:13:13;19.30;99.90
21861;DHT22;11095;48.066;8.540;2022-09-01T07:15:43;19.30;99.90
21861;DHT22;11095;48.066;8.540;2022-09-01T07:18:09;18.10;99.90
21861;DHT22;11095;48.066;8.540;2022-09-01T07:20:39;18.00;99.90
21861;DHT22;11095;48.066;8.540;2022-09-01T07:23:07;18.00;99.90
21861;DHT22;11095;48.066;8.540;2022-09-01T07:25:36;17.40;99.90
21861;DHT22;11095;48.066;8.540;2022-09-01T07:28:04;16.80;99.90
21861;DHT22;11095;48.066;8.540;2022-09-01T07:30:30;17.10;99.90
21861;DHT22;11095;48.066;8.540;2022-09-01T07:32:56;17.20;99.90
21861;DHT22;11095;48.066;8.540;2022-09-01T07:35:22;17.40;99.90
21861;DHT22;11095;48.066;8.540;2022-09-01T07:37:48;18.00;99.90
21861;DHT22;11095;48.066;8.540;2022-09-01T07:40:16;17.00;99.90
21861;DHT22;11095;48.066;8.540;2022-09-01T07:42:44;16.40;99.90
21861;DHT22;11095;48.066;8.540;2022-09-01T07:45:13;16.30;99.90
21861;DHT22;11095;48.066;8.540;2022-09-01T07:47:40;15.80;99.90
21861;DHT22;11095;48.066;8.540;2022-09-01T07:50:08;16.10;99.90
21861;DHT22;11095;48.066;8.540;2022-09-01T07:52:36;16.40;99.90
21861;DHT22;11095;48.066;8.540;2022-09-01T07:55:11;16.40;99.90
21861;DHT22;11095;48.066;8.540;2022-09-01T07:57:41;16.40;99.90
21861;DHT22;11095;48.066;8.540;2022-09-01T08:00:09;17.30;99.90
21861;DHT22;11095;48.066;8.540;2022-09-01T08:02:36;18.20;99.90
21861;DHT22;11095;48.066;8.540;2022-09-01T08:05:08;17.80;99.90
21861;DHT22;11095;48.066;8.540;2022-09-01T08:07:34;18.50;99.90
21861;DHT22;11095;48.066;8.540;2022-09-01T08:10:01;17.90;99.90
21861;DHT22;11095;48.066;8.540;2022-09-01T08:12:27;17.30;99.90
21861;DHT22;11095;48.066;8.540;2022-09-01T08:14:53;18.00;99.90
21861;DHT22;11095;48.066;8.540;2022-09-01T08:17:19;18.10;99.90
21861;DHT22;11095;48.066;8.540;2022-09-01T08:19:45;17.60;99.90
21861;DHT22;11095;48.066;8.540;2022-09-01T08:22:12;18.40;99.90
21861;DHT22;11095;48.066;8.540;2022-09-01T08:24:49;19.80;99.90
21861;DHT22;11095;48.066;8.540;2022-09-01T08:27:15;20.30;99.90
21861;DHT22;11095;48.066;8.540;2022-09-01T08:29:40;21.00;99.90
21861;DHT22;11095;48.066;8.540;2022-09-01T08:32:07;21.30;99.90
21861;DHT22;11095;48.066;8.540;2022-09-01T08:34:33;20.10;99.90
21861;DHT22;11095;48.066;8.540;2022-09-01T08:36:59;19.40;99.90
21861;DHT22;11095;48.066;8.540;2022-09-01T08:39:25;19.60;99.90
21861;DHT22;11095;48.066;8.540;2022-09-01T08:45:09;19.00;99.90
21861;DHT22;11095;48.066;8.540;2022-09-01T08:47:36;18.40;99.90
21861;DHT22;11095;48.066;8.540;2022-09-01T08:50:03;17.40;99.90
21861;DHT22;11095;48.066;8.540;2022-09-01T08:52:35;18.00;99.90
21861;DHT22;11095;48.066;8.540;2022-09-01T08:57:31;19.90;99.90
21861;DHT22;11095;48.066;8.540;2022-09-01T08:59:57;18.90;99.90
21861;DHT22;11095;48.066;8.540;2022-09-01T09:15:59;18.50;99.90
21861;DHT22;11095;48.066;8.540;2022-09-01T09:18:41;18.30;99.90
21861;DHT22;11095;48.066;8.540;2022-09-01T09:23:47;18.20;99.90
21861;DHT22;11095;48.066;8.540;2022-09-01T09:26:14;18.70;99.90
21861;DHT22;11095;48.066;8.540;2022-09-01T09:28:46;18.80;99.90
21861;DHT22;11095;48.066;8.540;2022-09-01T09:31:43;18.40;99.90
21861;DHT22;11095;48.066;8.540;2022-09-01T09:34:34;18.50;99.90
21861;DHT22;11095;48.066;8.540;2022-09-01T09:39:41;18.50;99.90
21861;DHT22;11095;48.066;8.540;2022-09-01T09:42:10;18.90;99.90
21861;DHT22;11095;48.066;8.540;2022-09-01T09:44:46;19.20;99.90
21861;DHT22;11095;48.066;8.540;2022-09-01T09:47:36;19.90;99.90
21861;DHT22;11095;48.066;8.540;2022-09-01T09:50:27;20.00;99.90
21861;DHT22;11095;48.066;8.540;2022-09-01T09:53:15;19.50;99.90
21861;DHT22;11095;48.066;8.540;2022-09-01T09:55:55;19.60;99.90
21861;DHT22;11095;48.066;8.540;2022-09-01T09:58:23;19.40;99.90
21861;DHT22;11095;48.066;8.540;2022-09-01T10:01:26;19.40;99.90
21861;DHT22;11095;48.066;8.540;2022-09-01T10:03:57;19.80;99.90
21861;DHT22;11095;48.066;8.540;2022-09-01T10:08:59;20.70;99.90
21861;DHT22;11095;48.066;8.540;2022-09-01T10:11:38;21.10;99.90
21861;DHT22;11095;48.066;8.540;2022-09-01T10:14:15;21.50;99.90
21861;DHT22;11095;48.066;8.540;2022-09-01T10:16:42;21.60;99.90
21861;DHT22;11095;48.066;8.540;2022-09-01T10:19:13;21.10;99.90
21861;DHT22;11095;48.066;8.540;2022-09-01T10:21:42;21.60;99.90
21861;DHT22;11095;48.066;8.540;2022-09-01T10:24:28;22.20;99.90
21861;DHT22;11095;48.066;8.540;2022-09-01T10:26:58;22.10;99.90
21861;DHT22;11095;48.066;8.540;2022-09-01T10:31:55;22.70;99.90
21861;DHT22;11095;48.066;8.540;2022-09-01T10:34:22;22.30;99.90
21861;DHT22;11095;48.066;8.540;2022-09-01T10:36:49;22.40;99.90
21861;DHT22;11095;48.066;8.540;2022-09-01T10:39:17;22.30;99.90
21861;DHT22;11095;48.066;8.540;2022-09-01T10:41:53;22.50;99.90
21861;DHT22;11095;48.066;8.540;2022-09-01T10:46:57;22.10;99.90
21861;DHT22;11095;48.066;8.540;2022-09-01T10:51:55;20.80;99.90
21861;DHT22;11095;48.066;8.540;2022-09-01T10:57:18;20.10;99.90
21861;DHT22;11095;48.066;8.540;2022-09-01T10:59:46;20.10;99.90
21861;DHT22;11095;48.066;8.540;2022-09-01T11:02:16;19.70;99.90
21861;DHT22;11095;48.066;8.540;2022-09-01T11:09:44;19.40;99.90
21861;DHT22;11095;48.066;8.540;2022-09-01T11:17:57;20.70;99.90
21861;DHT22;11095;48.066;8.540;2022-09-01T11:20:36;21.10;99.90
21861;DHT22;11095;48.066;8.540;2022-09-01T11:23:25;21.70;99.90
21861;DHT22;11095;48.066;8.540;2022-09-01T11:25:55;22.20;99.90
21861;DHT22;11095;48.066;8.540;2022-09-01T11:33:45;21.30;99.90
21861;DHT22;11095;48.066;8.540;2022-09-01T11:36:27;21.20;99.90
21861;DHT22;11095;48.066;8.540;2022-09-01T11:44:14;19.30;99.90
21861;DHT22;11095;48.066;8.540;2022-09-01T11:46:41;19.60;99.90
21861;DHT22;11095;48.066;8.540;2022-09-01T11:49:31;19.80;99.90
21861;DHT22;11095;48.066;8.540;2022-09-01T11:51:58;19.60;99.90
21861;DHT22;11095;48.066;8.540;2022-09-01T11:54:26;19.20;99.90
21861;DHT22;11095;48.066;8.540;2022-09-01T11:56:52;19.50;99.90
21861;DHT22;11095;48.066;8.540;2022-09-01T11:59:33;19.80;99.90
21861;DHT22;11095;48.066;8.540;2022-09-01T12:01:59;19.90;99.90
21861;DHT22;11095;48.066;8.540;2022-09-01T12:04:31;20.00;99.90
21861;DHT22;11095;48.066;8.540;2022-09-01T12:07:25;20.10;99.90
21861;DHT22;11095;48.066;8.540;2022-09-01T12:09:51;20.10;99.90
21861;DHT22;11095;48.066;8.540;2022-09-01T12:12:33;20.10;99.90
21861;DHT22;11095;48.066;8.540;2022-09-01T12:15:04;20.40;99.90
21861;DHT22;11095;48.066;8.540;2022-09-01T12:17:32;20.50;99.90
21861;DHT22;11095;48.066;8.540;2022-09-01T12:22:50;21.00;99.90
21861;DHT22;11095;48.066;8.540;2022-09-01T12:27:49;20.80;99.90
21861;DHT22;11095;48.066;8.540;2022-09-01T12:30:16;21.00;99.90
21861;DHT22;11095;48.066;8.540;2022-09-01T12:32:42;21.30;99.90
21861;DHT22;11095;48.066;8.540;2022-09-01T12:35:26;21.40;99.90
21861;DHT22;11095;48.066;8.540;2022-09-01T12:40:43;21.00;99.90
21861;DHT22;11095;48.066;8.540;2022-09-01T12:43:10;21.10;99.90
21861;DHT22;11095;48.066;8.540;2022-09-01T12:45:43;21.00;99.90
21861;DHT22;11095;48.066;8.540;2022-09-01T12:51:22;21.10;99.90
21861;DHT22;11095;48.066;8.540;2022-09-01T12:53:58;21.20;99.90
21861;DHT22;11095;48.066;8.540;2022-09-01T12:56:30;21.10;99.90
21861;DHT22;11095;48.066;8.540;2022-09-01T12:59:22;21.00;99.90
21861;DHT22;11095;48.066;8.540;2022-09-01T13:01:48;21.00;99.90
21861;DHT22;11095;48.066;8.540;2022-09-01T13:06:46;21.20;99.90
21861;DHT22;11095;48.066;8.540;2022-09-01T13:09:12;20.60;99.90
21861;DHT22;11095;48.066;8.540;2022-09-01T13:11:38;20.30;99.90
21861;DHT22;11095;48.066;8.540;2022-09-01T13:14:04;20.20;99.90
21861;DHT22;11095;48.066;8.540;2022-09-01T13:16:29;20.20;99.90
21861;DHT22;11095;48.066;8.540;2022-09-01T13:18:55;20.00;99.90
21861;DHT22;11095;48.066;8.540;2022-09-01T13:21:21;20.10;99.90
21861;DHT22;11095;48.066;8.540;2022-09-01T13:23:47;20.30;99.90
21861;DHT22;11095;48.066;8.540;2022-09-01T13:26:13;20.60;99.90
21861;DHT22;11095;48.066;8.540;2022-09-01T13:28:39;20.60;99.90
21861;DHT22;11095;48.066;8.540;2022-09-01T13:31:05;20.70;99.90
21861;DHT22;11095;48.066;8.540;2022-09-01T13:33:32;20.80;99.90
21861;DHT22;11095;48.066;8.540;2022-09-01T13:35:59;20.80;99.90
21861;DHT22;11095;48.066;8.540;2022-09-01T13:38:25;21.10;99.90
21861;DHT22;11095;48.066;8.540;2022-09-01T13:40:51;21.40;99.90
21861;DHT22;11095;48.066;8.540;2022-09-01T13:43:19;21.50;99.90
21861;DHT22;11095;48.066;8.540;2022-09-01T13:45:46;21.50;99.90
21861;DHT22;11095;48.066;8.540;2022-09-01T13:48:13;21.60;99.90
21861;DHT22;11095;48.066;8.540;2022-09-01T13:50:40;21.70;99.90
21861;DHT22;11095;48.066;8.540;2022-09-01T13:53:06;21.90;99.90
21861;DHT22;11095;48.066;8.540;2022-09-01T13:55:35;21.60;99.90
21861;DHT22;11095;48.066;8.540;2022-09-01T13:58:02;21.30;99.90
21861;DHT22;11095;48.066;8.540;2022-09-01T14:00:31;20.80;99.90
21861;DHT22;11095;48.066;8.540;2022-09-01T14:03:01;20.40;99.90
21861;DHT22;11095;48.066;8.540;2022-09-01T14:05:30;20.10;99.90
21861;DHT22;11095;48.066;8.540;2022-09-01T14:07:57;20.30;99.90
21861;DHT22;11095;48.066;8.540;2022-09-01T14:10:23;20.40;99.90
21861;DHT22;11095;48.066;8.540;2022-09-01T14:12:50;20.50;99.90
21861;DHT22;11095;48.066;8.540;2022-09-01T14:15:17;20.60;99.90
21861;DHT22;11095;48.066;8.540;2022-09-01T14:17:46;20.70;99.90
21861;DHT22;11095;48.066;8.540;2022-09-01T14:20:18;20.60;99.90
21861;DHT22;11095;48.066;8.540;2022-09-01T14:22:46;20.70;99.90
21861;DHT22;11095;48.066;8.540;2022-09-01T14:25:12;20.20;99.90
21861;DHT22;11095;48.066;8.540;2022-09-01T14:27:38;19.70;99.90
21861;DHT22;11095;48.066;8.540;2022-09-01T14:30:06;19.60;99.90
21861;DHT22;11095;48.066;8.540;2022-09-01T14:32:33;19.80;99.90
21861;DHT22;11095;48.066;8.540;2022-09-01T14:34:59;19.90;99.90
21861;DHT22;11095;48.066;8.540;2022-09-01T14:37:25;20.30;99.90
21861;DHT22;11095;48.066;8.540;2022-09-01T14:39:52;20.60;99.90
21861;DHT22;11095;48.066;8.540;2022-09-01T14:42:19;20.40;99.90
21861;DHT22;11095;48.066;8.540;2022-09-01T14:44:46;20.30;99.90
21861;DHT22;11095;48.066;8.540;2022-09-01T14:47:13;20.20;99.90
21861;DHT22;11095;48.066;8.540;2022-09-01T14:49:39;19.90;99.90
21861;DHT22;11095;48.066;8.540;2022-09-01T14:52:06;20.00;99.90
21861;DHT22;11095;48.066;8.540;2022-09-01T14:54:37;20.00;99.90
21861;DHT22;11095;48.066;8.540;2022-09-01T14:57:04;20.00;99.90
21861;DHT22;11095;48.066;8.540;2022-09-01T14:59:31;20.10;99.90
21861;DHT22;11095;48.066;8.540;2022-09-01T15:01:57;20.40;99.90
21861;DHT22;11095;48.066;8.540;2022-09-01T15:04:22;20.70;99.90
21861;DHT22;11095;48.066;8.540;2022-09-01T15:06:48;21.00;99.90
21861;DHT22;11095;48.066;8.540;2022-09-01T15:09:14;21.10;99.90
21861;DHT22;11095;48.066;8.540;2022-09-01T15:11:40;20.90;99.90
21861;DHT22;11095;48.066;8.540;2022-09-01T15:14:07;20.90;99.90
21861;DHT22;11095;48.066;8.540;2022-09-01T15:16:35;20.60;99.90
21861;DHT22;11095;48.066;8.540;2022-09-01T15:19:05;20.30;99.90
21861;DHT22;11095;48.066;8.540;2022-09-01T15:21:32;20.20;99.90
21861;DHT22;11095;48.066;8.540;2022-09-01T15:23:59;20.20;99.90
21861;DHT22;11095;48.066;8.540;2022-09-01T15:26:26;20.40;99.90
21861;DHT22;11095;48.066;8.540;2022-09-01T15:28:52;20.50;99.90
21861;DHT22;11095;48.066;8.540;2022-09-01T15:31:19;20.60;99.90
21861;DHT22;11095;48.066;8.540;2022-09-01T15:33:45;20.70;99.90
21861;DHT22;11095;48.066;8.540;2022-09-01T15:36:17;20.50;99.90
21861;DHT22;11095;48.066;8.540;2022-09-01T15:38:43;20.40;99.90
21861;DHT22;11095;48.066;8.540;2022-09-01T15:41:18;20.30;99.90
21861;DHT22;11095;48.066;8.540;2022-09-01T15:43:44;20.40;99.90
21861;DHT22;11095;48.066;8.540;2022-09-01T15:46:10;20.40;99.90
21861;DHT22;11095;48.066;8.540;2022-09-01T15:48:38;20.40;99.90
21861;DHT22;11095;48.066;8.540;2022-09-01T15:51:28;20.40;99.90
21861;DHT22;11095;48.066;8.540;2022-09-01T15:53:59;20.30;99.90
21861;DHT22;11095;48.066;8.540;2022-09-01T15:56:26;20.30;99.90
21861;DHT22;11095;48.066;8.540;2022-09-01T15:58:51;20.30;99.90
21861;DHT22;11095;48.066;8.540;2022-09-01T16:01:18;20.40;99.90
21861;DHT22;11095;48.066;8.540;2022-09-01T16:03:44;20.40;99.90
21861;DHT22;11095;48.066;8.540;2022-09-01T16:06:10;20.30;99.90
21861;DHT22;11095;48.066;8.540;2022-09-01T16:08:38;20.00;99.90
21861;DHT22;11095;48.066;8.540;2022-09-01T16:11:06;19.90;99.90
21861;DHT22;11095;48.066;8.540;2022-09-01T16:13:35;19.80;99.90
21861;DHT22;11095;48.066;8.540;2022-09-01T16:16:21;19.70;99.90
21861;DHT22;11095;48.066;8.540;2022-09-01T16:19:03;19.60;99.90
21861;DHT22;11095;48.066;8.540;2022-09-01T16:21:48;19.60;99.90
21861;DHT22;11095;48.066;8.540;2022-09-01T16:24:17;19.50;99.90
21861;DHT22;11095;48.066;8.540;2022-09-01T16:26:46;19.40;99.90
21861;DHT22;11095;48.066;8.540;2022-09-01T16:29:31;19.50;99.90
21861;DHT22;11095;48.066;8.540;2022-09-01T16:31:58;19.40;99.90
21861;DHT22;11095;48.066;8.540;2022-09-01T16:34:24;19.40;99.90
21861;DHT22;11095;48.066;8.540;2022-09-01T16:45:14;19.20;99.90
21861;DHT22;11095;48.066;8.540;2022-09-01T16:50:47;19.20;99.90
21861;DHT22;11095;48.066;8.540;2022-09-01T16:55:56;19.00;99.90
21861;DHT22;11095;48.066;8.540;2022-09-01T16:58:37;19.00;99.90
21861;DHT22;11095;48.066;8.540;2022-09-01T17:04:30;19.00;99.90
21861;DHT22;11095;48.066;8.540;2022-09-01T17:07:24;19.10;99.90
21861;DHT22;11095;48.066;8.540;2022-09-01T17:14:58;19.20;99.90
21861;DHT22;11095;48.066;8.540;2022-09-01T17:20:28;19.10;99.90
21861;DHT22;11095;48.066;8.540;2022-09-01T17:22:56;19.00;99.90
21861;DHT22;11095;48.066;8.540;2022-09-01T17:25:31;18.90;99.90
21861;DHT22;11095;48.066;8.540;2022-09-01T17:28:01;18.90;99.90